International Virtual Aviation Organisation

Russian Federation and Kazakhstan MCD

 
UHHH 060830Z 24008MPS 9999 DRSN NSC M12/M23 Q1025 R23L/090060 NOSIG RMK QFE762/1017
QNH:(hPa/inHg/mmHg)1025 / 30.27 / 769
QFE:(hPa/inHg/mmHg)1016 / 30.00 / 762
Temperature-12
Dew Point-23
Visibility> 10000
Weather
Cloud Cover
Transition Height900 m./3200 ft.
Transition LevelFL40
SQUAWK